Swedesboro, New Jersey
Current Conditions -  °F | °C
As of 5:54 PM on Tuesday 27 Jan 2015 (Local Time) from KPHL Reporting Station
Broken Clouds Broken Clouds  
Wind Chill: 22°   Ceiling: 15000
Heat Index: 32°   Visibility: 10mi
Dew Point: 11°   Wind: 14mph
Humidity: 42%   Direction: 300°WNW
Pressure: 29.76"   Gusts: NA
Location:  39.75°N, 75.31°W
Report Text: KPHL 272254Z 30012KT 10SM BKN150 BKN250 00/M12 A2976 RMK AO2 SLP076 T00001117 $
Loading
Personal Weather Stations






























Interactive Weather Map New forecast layout! Learn more

10-Day Weather Forecast

Advertisements
Track Severe Weather on mobile